sensor_id;sensor_type;location;lat;lon;timestamp;temperature;humidity
19920;DHT22;10122;50.074;19.920;2022-12-18T00:03:51;-1.40;99.90
19920;DHT22;10122;50.074;19.920;2022-12-18T00:06:17;-1.50;99.90
19920;DHT22;10122;50.074;19.920;2022-12-18T00:08:44;-1.70;99.90
19920;DHT22;10122;50.074;19.920;2022-12-18T00:11:13;-1.60;99.90
19920;DHT22;10122;50.074;19.920;2022-12-18T00:13:39;-1.60;99.90
19920;DHT22;10122;50.074;19.920;2022-12-18T00:16:10;-1.60;99.90
19920;DHT22;10122;50.074;19.920;2022-12-18T00:18:36;-1.50;99.90
19920;DHT22;10122;50.074;19.920;2022-12-18T00:21:05;-1.40;99.90
19920;DHT22;10122;50.074;19.920;2022-12-18T00:23:32;-1.30;99.90
19920;DHT22;10122;50.074;19.920;2022-12-18T00:26:03;-1.40;99.90
19920;DHT22;10122;50.074;19.920;2022-12-18T00:28:28;-1.40;99.90
19920;DHT22;10122;50.074;19.920;2022-12-18T00:31:05;-1.50;99.90
19920;DHT22;10122;50.074;19.920;2022-12-18T00:33:31;-1.40;99.90
19920;DHT22;10122;50.074;19.920;2022-12-18T00:36:18;-1.40;99.90
19920;DHT22;10122;50.074;19.920;2022-12-18T00:38:44;-1.50;99.90
19920;DHT22;10122;50.074;19.920;2022-12-18T00:41:11;-1.40;99.90
19920;DHT22;10122;50.074;19.920;2022-12-18T00:43:38;-1.40;99.90
19920;DHT22;10122;50.074;19.920;2022-12-18T00:46:04;-1.50;99.90
19920;DHT22;10122;50.074;19.920;2022-12-18T00:48:29;-1.60;99.90
19920;DHT22;10122;50.074;19.920;2022-12-18T00:50:55;-1.50;99.90
19920;DHT22;10122;50.074;19.920;2022-12-18T00:53:21;-1.40;99.90
19920;DHT22;10122;50.074;19.920;2022-12-18T00:55:47;-1.50;99.90
19920;DHT22;10122;50.074;19.920;2022-12-18T00:58:14;-1.50;99.90
19920;DHT22;10122;50.074;19.920;2022-12-18T01:00:41;-1.50;99.90
19920;DHT22;10122;50.074;19.920;2022-12-18T01:03:06;-1.50;99.90
19920;DHT22;10122;50.074;19.920;2022-12-18T01:05:32;-1.60;99.90
19920;DHT22;10122;50.074;19.920;2022-12-18T01:07:59;-1.60;99.90
19920;DHT22;10122;50.074;19.920;2022-12-18T01:10:25;-1.70;99.90
19920;DHT22;10122;50.074;19.920;2022-12-18T01:12:51;-1.70;99.90
19920;DHT22;10122;50.074;19.920;2022-12-18T01:15:17;-1.70;99.90
19920;DHT22;10122;50.074;19.920;2022-12-18T01:17:43;-1.70;99.90
19920;DHT22;10122;50.074;19.920;2022-12-18T01:20:11;-1.70;99.90
19920;DHT22;10122;50.074;19.920;2022-12-18T01:22:37;-1.70;99.90
19920;DHT22;10122;50.074;19.920;2022-12-18T01:25:04;-1.70;99.90
19920;DHT22;10122;50.074;19.920;2022-12-18T01:27:30;-1.70;99.90
19920;DHT22;10122;50.074;19.920;2022-12-18T01:29:56;-1.70;99.90
19920;DHT22;10122;50.074;19.920;2022-12-18T01:32:22;-1.60;99.90
19920;DHT22;10122;50.074;19.920;2022-12-18T01:34:47;-1.60;99.90
19920;DHT22;10122;50.074;19.920;2022-12-18T01:37:13;-1.70;99.90
19920;DHT22;10122;50.074;19.920;2022-12-18T01:39:39;-1.60;99.90
19920;DHT22;10122;50.074;19.920;2022-12-18T01:42:11;-1.70;99.90
19920;DHT22;10122;50.074;19.920;2022-12-18T01:50:20;-1.70;99.90
19920;DHT22;10122;50.074;19.920;2022-12-18T01:53:24;-1.60;99.90
19920;DHT22;10122;50.074;19.920;2022-12-18T01:55:55;-1.70;99.90
19920;DHT22;10122;50.074;19.920;2022-12-18T02:01:03;-1.90;99.90
19920;DHT22;10122;50.074;19.920;2022-12-18T02:03:28;-1.90;99.90
19920;DHT22;10122;50.074;19.920;2022-12-18T02:11:37;-1.80;99.90
19920;DHT22;10122;50.074;19.920;2022-12-18T02:16:46;-1.80;99.90
19920;DHT22;10122;50.074;19.920;2022-12-18T02:24:59;-1.70;99.90
19920;DHT22;10122;50.074;19.920;2022-12-18T02:27:29;-1.80;99.90
19920;DHT22;10122;50.074;19.920;2022-12-18T02:29:58;-1.70;99.90
19920;DHT22;10122;50.074;19.920;2022-12-18T02:32:28;-1.70;99.90
19920;DHT22;10122;50.074;19.920;2022-12-18T02:34:56;-1.60;99.90
19920;DHT22;10122;50.074;19.920;2022-12-18T02:37:24;-1.70;99.90
19920;DHT22;10122;50.074;19.920;2022-12-18T02:39:53;-1.70;99.90
19920;DHT22;10122;50.074;19.920;2022-12-18T02:42:21;-1.70;99.90
19920;DHT22;10122;50.074;19.920;2022-12-18T02:44:50;-1.80;99.90
19920;DHT22;10122;50.074;19.920;2022-12-18T02:47:19;-1.80;99.90
19920;DHT22;10122;50.074;19.920;2022-12-18T02:50:08;-1.90;99.90
19920;DHT22;10122;50.074;19.920;2022-12-18T02:52:39;-1.90;99.90
19920;DHT22;10122;50.074;19.920;2022-12-18T03:06:32;-1.90;99.90
19920;DHT22;10122;50.074;19.920;2022-12-18T03:09:04;-1.80;99.90
19920;DHT22;10122;50.074;19.920;2022-12-18T03:11:33;-1.80;99.90
19920;DHT22;10122;50.074;19.920;2022-12-18T03:14:20;-1.70;99.90
19920;DHT22;10122;50.074;19.920;2022-12-18T03:16:49;-1.70;99.90
19920;DHT22;10122;50.074;19.920;2022-12-18T03:19:21;-1.50;99.90
19920;DHT22;10122;50.074;19.920;2022-12-18T03:21:51;-1.60;99.90
19920;DHT22;10122;50.074;19.920;2022-12-18T03:24:17;-1.70;99.90
19920;DHT22;10122;50.074;19.920;2022-12-18T03:26:47;-1.80;99.90
19920;DHT22;10122;50.074;19.920;2022-12-18T03:29:18;-1.80;99.90
19920;DHT22;10122;50.074;19.920;2022-12-18T03:31:50;-1.80;99.90
19920;DHT22;10122;50.074;19.920;2022-12-18T03:34:21;-1.80;99.90
19920;DHT22;10122;50.074;19.920;2022-12-18T03:36:49;-1.80;99.90
19920;DHT22;10122;50.074;19.920;2022-12-18T03:39:14;-1.80;99.90
19920;DHT22;10122;50.074;19.920;2022-12-18T03:41:51;-1.80;99.90
19920;DHT22;10122;50.074;19.920;2022-12-18T03:44:27;-1.90;99.90
19920;DHT22;10122;50.074;19.920;2022-12-18T03:47:24;-1.90;99.90
19920;DHT22;10122;50.074;19.920;2022-12-18T03:49:59;-1.80;99.90
19920;DHT22;10122;50.074;19.920;2022-12-18T03:52:38;-1.80;99.90
19920;DHT22;10122;50.074;19.920;2022-12-18T03:55:08;-1.70;99.90
19920;DHT22;10122;50.074;19.920;2022-12-18T03:57:35;-1.70;99.90
19920;DHT22;10122;50.074;19.920;2022-12-18T04:00:06;-1.70;99.90
19920;DHT22;10122;50.074;19.920;2022-12-18T04:02:33;-1.70;99.90
19920;DHT22;10122;50.074;19.920;2022-12-18T04:05:02;-1.70;99.90
19920;DHT22;10122;50.074;19.920;2022-12-18T04:07:29;-1.60;99.90
19920;DHT22;10122;50.074;19.920;2022-12-18T04:09:56;-1.60;99.90
19920;DHT22;10122;50.074;19.920;2022-12-18T04:12:25;-1.60;99.90
19920;DHT22;10122;50.074;19.920;2022-12-18T04:14:54;-1.60;99.90
19920;DHT22;10122;50.074;19.920;2022-12-18T04:17:21;-1.50;99.90
19920;DHT22;10122;50.074;19.920;2022-12-18T04:19:47;-1.60;99.90
19920;DHT22;10122;50.074;19.920;2022-12-18T04:22:12;-1.60;99.90
19920;DHT22;10122;50.074;19.920;2022-12-18T04:24:38;-1.70;99.90
19920;DHT22;10122;50.074;19.920;2022-12-18T04:27:04;-1.70;99.90
19920;DHT22;10122;50.074;19.920;2022-12-18T04:29:30;-1.60;99.90
19920;DHT22;10122;50.074;19.920;2022-12-18T04:31:55;-1.60;99.90
19920;DHT22;10122;50.074;19.920;2022-12-18T04:34:21;-1.70;99.90
19920;DHT22;10122;50.074;19.920;2022-12-18T04:36:47;-1.70;99.90
19920;DHT22;10122;50.074;19.920;2022-12-18T04:39:13;-1.70;99.90
19920;DHT22;10122;50.074;19.920;2022-12-18T04:41:39;-1.70;99.90
19920;DHT22;10122;50.074;19.920;2022-12-18T04:44:05;-1.70;99.90
19920;DHT22;10122;50.074;19.920;2022-12-18T04:46:30;-1.70;99.90
19920;DHT22;10122;50.074;19.920;2022-12-18T04:48:56;-1.70;99.90
19920;DHT22;10122;50.074;19.920;2022-12-18T04:51:22;-1.70;99.90
19920;DHT22;10122;50.074;19.920;2022-12-18T04:53:47;-1.70;99.90
19920;DHT22;10122;50.074;19.920;2022-12-18T04:56:14;-1.70;99.90
19920;DHT22;10122;50.074;19.920;2022-12-18T04:58:42;-1.60;99.90
19920;DHT22;10122;50.074;19.920;2022-12-18T05:01:08;-1.60;99.90
19920;DHT22;10122;50.074;19.920;2022-12-18T05:03:35;-1.60;99.90
19920;DHT22;10122;50.074;19.920;2022-12-18T05:06:01;-1.60;99.90
19920;DHT22;10122;50.074;19.920;2022-12-18T05:08:27;-1.70;99.90
19920;DHT22;10122;50.074;19.920;2022-12-18T05:11:05;-1.70;99.90
19920;DHT22;10122;50.074;19.920;2022-12-18T05:13:31;-1.70;99.90
19920;DHT22;10122;50.074;19.920;2022-12-18T05:15:58;-1.60;99.90
19920;DHT22;10122;50.074;19.920;2022-12-18T05:18:24;-1.60;99.90
19920;DHT22;10122;50.074;19.920;2022-12-18T05:20:51;-1.60;99.90
19920;DHT22;10122;50.074;19.920;2022-12-18T05:23:17;-1.70;99.90
19920;DHT22;10122;50.074;19.920;2022-12-18T05:25:50;-1.70;99.90
19920;DHT22;10122;50.074;19.920;2022-12-18T05:28:16;-1.80;99.90
19920;DHT22;10122;50.074;19.920;2022-12-18T05:30:41;-1.80;99.90
19920;DHT22;10122;50.074;19.920;2022-12-18T05:33:07;-1.80;99.90
19920;DHT22;10122;50.074;19.920;2022-12-18T05:35:33;-1.80;99.90
19920;DHT22;10122;50.074;19.920;2022-12-18T05:37:58;-1.80;99.90
19920;DHT22;10122;50.074;19.920;2022-12-18T05:40:24;-1.60;99.90
19920;DHT22;10122;50.074;19.920;2022-12-18T05:42:50;-1.60;99.90
19920;DHT22;10122;50.074;19.920;2022-12-18T05:45:15;-1.60;99.90
19920;DHT22;10122;50.074;19.920;2022-12-18T05:47:41;-1.70;99.90
19920;DHT22;10122;50.074;19.920;2022-12-18T05:50:07;-1.70;99.90
19920;DHT22;10122;50.074;19.920;2022-12-18T05:52:33;-1.70;99.90
19920;DHT22;10122;50.074;19.920;2022-12-18T05:54:58;-1.80;99.90
19920;DHT22;10122;50.074;19.920;2022-12-18T05:57:24;-1.60;99.90
19920;DHT22;10122;50.074;19.920;2022-12-18T05:59:50;-1.60;99.90
19920;DHT22;10122;50.074;19.920;2022-12-18T06:02:15;-1.60;99.90
19920;DHT22;10122;50.074;19.920;2022-12-18T06:04:41;-1.60;99.90
19920;DHT22;10122;50.074;19.920;2022-12-18T06:07:07;-1.60;99.90
19920;DHT22;10122;50.074;19.920;2022-12-18T06:09:33;-1.70;99.90
19920;DHT22;10122;50.074;19.920;2022-12-18T06:11:58;-1.70;99.90
19920;DHT22;10122;50.074;19.920;2022-12-18T06:14:24;-1.70;99.90
19920;DHT22;10122;50.074;19.920;2022-12-18T06:16:50;-1.70;99.90
19920;DHT22;10122;50.074;19.920;2022-12-18T06:19:17;-1.70;99.90
19920;DHT22;10122;50.074;19.920;2022-12-18T06:21:43;-1.80;99.90
19920;DHT22;10122;50.074;19.920;2022-12-18T06:24:09;-1.80;99.90
19920;DHT22;10122;50.074;19.920;2022-12-18T06:26:37;-1.90;99.90
19920;DHT22;10122;50.074;19.920;2022-12-18T06:29:04;-1.90;99.90
19920;DHT22;10122;50.074;19.920;2022-12-18T06:31:30;-1.90;99.90
19920;DHT22;10122;50.074;19.920;2022-12-18T06:33:55;-1.90;99.90
19920;DHT22;10122;50.074;19.920;2022-12-18T06:36:21;-1.90;99.90
19920;DHT22;10122;50.074;19.920;2022-12-18T06:38:47;-1.90;99.90
19920;DHT22;10122;50.074;19.920;2022-12-18T06:41:14;-1.90;99.90
19920;DHT22;10122;50.074;19.920;2022-12-18T06:43:41;-1.80;99.90
19920;DHT22;10122;50.074;19.920;2022-12-18T06:46:07;-1.80;99.90
19920;DHT22;10122;50.074;19.920;2022-12-18T06:48:33;-1.80;99.90
19920;DHT22;10122;50.074;19.920;2022-12-18T06:50:59;-1.80;99.90
19920;DHT22;10122;50.074;19.920;2022-12-18T06:53:25;-1.90;99.90
19920;DHT22;10122;50.074;19.920;2022-12-18T06:55:51;-1.90;99.90
19920;DHT22;10122;50.074;19.920;2022-12-18T06:58:17;-1.90;99.90
19920;DHT22;10122;50.074;19.920;2022-12-18T07:00:43;-1.80;99.90
19920;DHT22;10122;50.074;19.920;2022-12-18T07:03:08;-1.80;99.90
19920;DHT22;10122;50.074;19.920;2022-12-18T07:05:34;-1.70;99.90
19920;DHT22;10122;50.074;19.920;2022-12-18T07:08:04;-1.70;99.90
19920;DHT22;10122;50.074;19.920;2022-12-18T07:10:30;-1.70;99.90
19920;DHT22;10122;50.074;19.920;2022-12-18T07:12:56;-1.70;99.90
19920;DHT22;10122;50.074;19.920;2022-12-18T07:15:21;-1.70;99.90
19920;DHT22;10122;50.074;19.920;2022-12-18T07:17:47;-1.70;99.90
19920;DHT22;10122;50.074;19.920;2022-12-18T07:20:13;-1.80;99.90
19920;DHT22;10122;50.074;19.920;2022-12-18T07:22:38;-1.80;99.90
19920;DHT22;10122;50.074;19.920;2022-12-18T07:25:04;-1.90;99.90
19920;DHT22;10122;50.074;19.920;2022-12-18T07:27:30;-2.00;99.90
19920;DHT22;10122;50.074;19.920;2022-12-18T07:29:56;-2.10;99.90
19920;DHT22;10122;50.074;19.920;2022-12-18T07:32:21;-1.90;99.90
19920;DHT22;10122;50.074;19.920;2022-12-18T07:34:47;-1.90;99.90
19920;DHT22;10122;50.074;19.920;2022-12-18T07:37:13;-1.80;99.90
19920;DHT22;10122;50.074;19.920;2022-12-18T07:39:38;-1.80;99.90
19920;DHT22;10122;50.074;19.920;2022-12-18T07:42:04;-1.80;99.90
19920;DHT22;10122;50.074;19.920;2022-12-18T07:44:48;-1.80;99.90
19920;DHT22;10122;50.074;19.920;2022-12-18T07:47:13;-1.80;99.90
19920;DHT22;10122;50.074;19.920;2022-12-18T07:49:39;-1.80;99.90
19920;DHT22;10122;50.074;19.920;2022-12-18T07:52:05;-1.80;99.90
19920;DHT22;10122;50.074;19.920;2022-12-18T07:54:31;-1.70;99.90
19920;DHT22;10122;50.074;19.920;2022-12-18T07:56:56;-1.70;99.90
19920;DHT22;10122;50.074;19.920;2022-12-18T07:59:22;-1.60;99.90
19920;DHT22;10122;50.074;19.920;2022-12-18T08:01:47;-1.50;99.90
19920;DHT22;10122;50.074;19.920;2022-12-18T08:04:13;-1.40;99.90
19920;DHT22;10122;50.074;19.920;2022-12-18T08:06:39;-1.40;99.90
19920;DHT22;10122;50.074;19.920;2022-12-18T08:09:04;-1.40;99.90
19920;DHT22;10122;50.074;19.920;2022-12-18T08:11:31;-1.30;99.90
19920;DHT22;10122;50.074;19.920;2022-12-18T08:13:57;-1.30;99.90
19920;DHT22;10122;50.074;19.920;2022-12-18T08:16:23;-1.30;99.90
19920;DHT22;10122;50.074;19.920;2022-12-18T08:18:51;-1.30;99.90
19920;DHT22;10122;50.074;19.920;2022-12-18T08:21:23;-1.30;99.90
19920;DHT22;10122;50.074;19.920;2022-12-18T08:23:50;-1.20;99.90
19920;DHT22;10122;50.074;19.920;2022-12-18T08:26:16;-1.20;99.90
19920;DHT22;10122;50.074;19.920;2022-12-18T08:28:42;-1.20;99.90
19920;DHT22;10122;50.074;19.920;2022-12-18T08:31:08;-1.20;99.90
19920;DHT22;10122;50.074;19.920;2022-12-18T08:33:34;-1.20;99.90
19920;DHT22;10122;50.074;19.920;2022-12-18T08:36:01;-1.10;99.90
19920;DHT22;10122;50.074;19.920;2022-12-18T08:38:27;-1.10;99.90
19920;DHT22;10122;50.074;19.920;2022-12-18T08:41:03;-1.10;99.90
19920;DHT22;10122;50.074;19.920;2022-12-18T08:43:29;-1.00;99.90
19920;DHT22;10122;50.074;19.920;2022-12-18T08:46:13;-1.00;99.90
19920;DHT22;10122;50.074;19.920;2022-12-18T08:48:39;-1.00;99.90
19920;DHT22;10122;50.074;19.920;2022-12-18T08:51:05;-0.90;99.90
19920;DHT22;10122;50.074;19.920;2022-12-18T08:53:30;-0.80;99.90
19920;DHT22;10122;50.074;19.920;2022-12-18T08:55:57;-0.80;99.90
19920;DHT22;10122;50.074;19.920;2022-12-18T08:58:23;-0.70;99.90
19920;DHT22;10122;50.074;19.920;2022-12-18T09:00:49;-0.60;99.90
19920;DHT22;10122;50.074;19.920;2022-12-18T09:03:16;-0.60;99.90
19920;DHT22;10122;50.074;19.920;2022-12-18T09:05:42;-0.60;99.90
19920;DHT22;10122;50.074;19.920;2022-12-18T09:08:09;-0.50;99.90
19920;DHT22;10122;50.074;19.920;2022-12-18T09:10:40;-0.60;99.90
19920;DHT22;10122;50.074;19.920;2022-12-18T09:13:06;-0.60;99.90
19920;DHT22;10122;50.074;19.920;2022-12-18T09:15:32;-0.60;99.90
19920;DHT22;10122;50.074;19.920;2022-12-18T09:17:57;-0.60;99.90
19920;DHT22;10122;50.074;19.920;2022-12-18T09:20:23;-0.60;99.90
19920;DHT22;10122;50.074;19.920;2022-12-18T09:22:49;-0.50;99.90
19920;DHT22;10122;50.074;19.920;2022-12-18T09:25:15;-0.50;99.90
19920;DHT22;10122;50.074;19.920;2022-12-18T09:27:41;-0.40;99.90
19920;DHT22;10122;50.074;19.920;2022-12-18T09:30:07;-0.40;99.90
19920;DHT22;10122;50.074;19.920;2022-12-18T09:32:33;-0.40;99.90
19920;DHT22;10122;50.074;19.920;2022-12-18T09:34:59;-0.30;99.90
19920;DHT22;10122;50.074;19.920;2022-12-18T09:37:25;-0.20;99.90
19920;DHT22;10122;50.074;19.920;2022-12-18T09:39:50;-0.10;99.90
19920;DHT22;10122;50.074;19.920;2022-12-18T09:42:25;-0.10;99.90
19920;DHT22;10122;50.074;19.920;2022-12-18T09:44:53;0.00;99.90
19920;DHT22;10122;50.074;19.920;2022-12-18T09:47:28;-0.10;99.90
19920;DHT22;10122;50.074;19.920;2022-12-18T09:50:02;0.10;99.90
19920;DHT22;10122;50.074;19.920;2022-12-18T09:52:44;0.10;99.90
19920;DHT22;10122;50.074;19.920;2022-12-18T09:57:56;0.40;99.90
19920;DHT22;10122;50.074;19.920;2022-12-18T10:00:24;0.40;99.90
19920;DHT22;10122;50.074;19.920;2022-12-18T10:03:14;0.50;99.90
19920;DHT22;10122;50.074;19.920;2022-12-18T10:08:29;0.60;99.90
19920;DHT22;10122;50.074;19.920;2022-12-18T10:14:13;0.90;99.90
19920;DHT22;10122;50.074;19.920;2022-12-18T10:19:55;1.00;99.90
19920;DHT22;10122;50.074;19.920;2022-12-18T10:25:31;1.00;99.90
19920;DHT22;10122;50.074;19.920;2022-12-18T10:28:07;1.70;99.90
19920;DHT22;10122;50.074;19.920;2022-12-18T10:30:33;2.00;99.90
19920;DHT22;10122;50.074;19.920;2022-12-18T10:33:02;2.10;99.90
19920;DHT22;10122;50.074;19.920;2022-12-18T10:35:28;2.00;99.90
19920;DHT22;10122;50.074;19.920;2022-12-18T10:51:20;1.80;99.90
19920;DHT22;10122;50.074;19.920;2022-12-18T10:54:01;1.80;99.90
19920;DHT22;10122;50.074;19.920;2022-12-18T10:56:29;1.90;99.90
19920;DHT22;10122;50.074;19.920;2022-12-18T10:59:07;1.90;99.90
19920;DHT22;10122;50.074;19.920;2022-12-18T11:01:55;1.80;99.90
19920;DHT22;10122;50.074;19.920;2022-12-18T11:04:24;1.70;99.90
19920;DHT22;10122;50.074;19.920;2022-12-18T11:06:57;1.50;99.90
19920;DHT22;10122;50.074;19.920;2022-12-18T11:09:31;1.30;99.90
19920;DHT22;10122;50.074;19.920;2022-12-18T11:12:00;1.20;99.90
19920;DHT22;10122;50.074;19.920;2022-12-18T11:14:27;1.20;99.90
19920;DHT22;10122;50.074;19.920;2022-12-18T11:16:55;1.20;99.90
19920;DHT22;10122;50.074;19.920;2022-12-18T11:21:52;1.10;99.90
19920;DHT22;10122;50.074;19.920;2022-12-18T11:24:26;1.20;99.90
19920;DHT22;10122;50.074;19.920;2022-12-18T11:26:54;1.20;99.90
19920;DHT22;10122;50.074;19.920;2022-12-18T11:29:27;1.20;99.90
19920;DHT22;10122;50.074;19.920;2022-12-18T11:34:46;1.10;99.90
19920;DHT22;10122;50.074;19.920;2022-12-18T11:37:15;1.00;99.90
19920;DHT22;10122;50.074;19.920;2022-12-18T11:39:59;1.00;99.90
19920;DHT22;10122;50.074;19.920;2022-12-18T11:42:51;0.90;99.90
19920;DHT22;10122;50.074;19.920;2022-12-18T11:45:30;0.90;99.90
19920;DHT22;10122;50.074;19.920;2022-12-18T11:48:05;1.00;99.90
19920;DHT22;10122;50.074;19.920;2022-12-18T11:50:44;0.90;99.90
19920;DHT22;10122;50.074;19.920;2022-12-18T11:53:12;0.80;99.90
19920;DHT22;10122;50.074;19.920;2022-12-18T11:56:00;0.80;99.90
19920;DHT22;10122;50.074;19.920;2022-12-18T11:58:49;0.80;99.90
19920;DHT22;10122;50.074;19.920;2022-12-18T12:12:47;0.80;99.90
19920;DHT22;10122;50.074;19.920;2022-12-18T12:15:28;0.80;99.90
19920;DHT22;10122;50.074;19.920;2022-12-18T12:34:51;0.70;99.90
19920;DHT22;10122;50.074;19.920;2022-12-18T12:37:46;0.80;99.90
19920;DHT22;10122;50.074;19.920;2022-12-18T12:40:18;0.70;99.90
19920;DHT22;10122;50.074;19.920;2022-12-18T12:42:52;0.70;99.90
19920;DHT22;10122;50.074;19.920;2022-12-18T12:46:05;0.80;99.90
19920;DHT22;10122;50.074;19.920;2022-12-18T12:48:52;0.70;99.90
19920;DHT22;10122;50.074;19.920;2022-12-18T12:51:22;0.70;99.90
19920;DHT22;10122;50.074;19.920;2022-12-18T12:53:49;0.70;99.90
19920;DHT22;10122;50.074;19.920;2022-12-18T12:56:17;0.70;99.90
19920;DHT22;10122;50.074;19.920;2022-12-18T12:59:02;0.70;99.90
19920;DHT22;10122;50.074;19.920;2022-12-18T13:07:11;0.60;99.90
19920;DHT22;10122;50.074;19.920;2022-12-18T13:12:54;0.60;99.90
19920;DHT22;10122;50.074;19.920;2022-12-18T13:15:31;0.60;99.90
19920;DHT22;10122;50.074;19.920;2022-12-18T13:20:45;0.70;99.90
19920;DHT22;10122;50.074;19.920;2022-12-18T13:25:59;0.60;99.90
19920;DHT22;10122;50.074;19.920;2022-12-18T13:34:29;-0.10;99.90
19920;DHT22;10122;50.074;19.920;2022-12-18T13:39:57;-0.70;99.90
19920;DHT22;10122;50.074;19.920;2022-12-18T13:45:37;-0.80;99.90
19920;DHT22;10122;50.074;19.920;2022-12-18T13:48:04;-0.80;99.90
19920;DHT22;10122;50.074;19.920;2022-12-18T13:50:30;-0.90;99.90
19920;DHT22;10122;50.074;19.920;2022-12-18T13:52:56;-0.80;99.90
19920;DHT22;10122;50.074;19.920;2022-12-18T13:55:23;-0.80;99.90
19920;DHT22;10122;50.074;19.920;2022-12-18T13:57:49;-0.70;99.90
19920;DHT22;10122;50.074;19.920;2022-12-18T14:00:30;-0.70;99.90
19920;DHT22;10122;50.074;19.920;2022-12-18T14:03:00;-0.70;99.90
19920;DHT22;10122;50.074;19.920;2022-12-18T14:07:58;-0.70;99.90
19920;DHT22;10122;50.074;19.920;2022-12-18T14:10:26;-0.70;99.90
19920;DHT22;10122;50.074;19.920;2022-12-18T14:12:52;-0.80;99.90
19920;DHT22;10122;50.074;19.920;2022-12-18T14:15:43;-0.90;99.90
19920;DHT22;10122;50.074;19.920;2022-12-18T14:18:21;-1.00;99.90
19920;DHT22;10122;50.074;19.920;2022-12-18T14:20:49;-1.00;99.90
19920;DHT22;10122;50.074;19.920;2022-12-18T14:23:41;-1.10;99.90
19920;DHT22;10122;50.074;19.920;2022-12-18T14:26:42;-1.20;99.90
19920;DHT22;10122;50.074;19.920;2022-12-18T14:34:32;-1.70;99.90
19920;DHT22;10122;50.074;19.920;2022-12-18T14:36:57;-1.70;99.90
19920;DHT22;10122;50.074;19.920;2022-12-18T14:39:23;-1.80;99.90
19920;DHT22;10122;50.074;19.920;2022-12-18T14:41:51;-1.90;99.90
19920;DHT22;10122;50.074;19.920;2022-12-18T14:44:16;-1.90;99.90
19920;DHT22;10122;50.074;19.920;2022-12-18T14:46:46;-1.90;99.90
19920;DHT22;10122;50.074;19.920;2022-12-18T14:52:02;-2.00;99.90
19920;DHT22;10122;50.074;19.920;2022-12-18T14:54:29;-2.00;99.90
19920;DHT22;10122;50.074;19.920;2022-12-18T14:57:21;-2.10;99.90
19920;DHT22;10122;50.074;19.920;2022-12-18T14:59:49;-2.10;99.90
19920;DHT22;10122;50.074;19.920;2022-12-18T15:04:46;-2.30;99.90
19920;DHT22;10122;50.074;19.920;2022-12-18T15:07:19;-2.40;99.90
19920;DHT22;10122;50.074;19.920;2022-12-18T15:12:33;-2.40;99.90
19920;DHT22;10122;50.074;19.920;2022-12-18T15:14:59;-2.40;99.90
19920;DHT22;10122;50.074;19.920;2022-12-18T15:17:25;-2.20;99.90
19920;DHT22;10122;50.074;19.920;2022-12-18T15:20:00;-2.10;99.90
19920;DHT22;10122;50.074;19.920;2022-12-18T15:22:28;-2.10;99.90
19920;DHT22;10122;50.074;19.920;2022-12-18T15:24:56;-2.20;99.90
19920;DHT22;10122;50.074;19.920;2022-12-18T15:30:20;-2.40;99.90
19920;DHT22;10122;50.074;19.920;2022-12-18T15:32:46;-2.50;99.90
19920;DHT22;10122;50.074;19.920;2022-12-18T15:35:20;-2.60;99.90
19920;DHT22;10122;50.074;19.920;2022-12-18T15:37:47;-2.60;99.90
19920;DHT22;10122;50.074;19.920;2022-12-18T15:40:21;-2.70;99.90
19920;DHT22;10122;50.074;19.920;2022-12-18T15:42:48;-2.70;99.90
19920;DHT22;10122;50.074;19.920;2022-12-18T15:45:32;-2.80;99.90
19920;DHT22;10122;50.074;19.920;2022-12-18T15:47:59;-2.80;99.90
19920;DHT22;10122;50.074;19.920;2022-12-18T15:50:24;-2.80;99.90
19920;DHT22;10122;50.074;19.920;2022-12-18T15:52:52;-3.00;99.90
19920;DHT22;10122;50.074;19.920;2022-12-18T15:55:23;-3.10;99.90
19920;DHT22;10122;50.074;19.920;2022-12-18T15:58:09;-3.20;99.90
19920;DHT22;10122;50.074;19.920;2022-12-18T16:00:38;-3.30;99.90
19920;DHT22;10122;50.074;19.920;2022-12-18T16:03:05;-3.30;99.90
19920;DHT22;10122;50.074;19.920;2022-12-18T16:05:32;-3.30;99.90
19920;DHT22;10122;50.074;19.920;2022-12-18T16:07:57;-3.40;99.90
19920;DHT22;10122;50.074;19.920;2022-12-18T16:10:24;-3.30;99.90
19920;DHT22;10122;50.074;19.920;2022-12-18T16:12:50;-3.40;99.90
19920;DHT22;10122;50.074;19.920;2022-12-18T16:15:16;-3.40;99.90
19920;DHT22;10122;50.074;19.920;2022-12-18T16:17:43;-3.40;99.90
19920;DHT22;10122;50.074;19.920;2022-12-18T16:20:17;-3.40;99.90
19920;DHT22;10122;50.074;19.920;2022-12-18T16:22:44;-3.60;99.90
19920;DHT22;10122;50.074;19.920;2022-12-18T16:25:25;-3.60;99.90
19920;DHT22;10122;50.074;19.920;2022-12-18T16:27:52;-3.70;99.90
19920;DHT22;10122;50.074;19.920;2022-12-18T16:30:30;-3.70;99.90
19920;DHT22;10122;50.074;19.920;2022-12-18T16:32:57;-3.70;99.90
19920;DHT22;10122;50.074;19.920;2022-12-18T16:35:25;-3.80;99.90
19920;DHT22;10122;50.074;19.920;2022-12-18T16:37:51;-3.70;99.90
19920;DHT22;10122;50.074;19.920;2022-12-18T16:40:18;-3.80;99.90
19920;DHT22;10122;50.074;19.920;2022-12-18T16:42:45;-3.80;99.90
19920;DHT22;10122;50.074;19.920;2022-12-18T16:45:14;-3.90;99.90
19920;DHT22;10122;50.074;19.920;2022-12-18T16:47:40;-3.90;99.90
19920;DHT22;10122;50.074;19.920;2022-12-18T16:50:07;-3.90;99.90
19920;DHT22;10122;50.074;19.920;2022-12-18T16:52:33;-4.00;99.90
19920;DHT22;10122;50.074;19.920;2022-12-18T16:54:59;-4.00;99.90
19920;DHT22;10122;50.074;19.920;2022-12-18T16:57:25;-4.10;99.90
19920;DHT22;10122;50.074;19.920;2022-12-18T16:59:51;-4.10;99.90
19920;DHT22;10122;50.074;19.920;2022-12-18T17:02:22;-4.20;99.90
19920;DHT22;10122;50.074;19.920;2022-12-18T17:04:48;-4.30;99.90
19920;DHT22;10122;50.074;19.920;2022-12-18T17:07:14;-4.20;99.90
19920;DHT22;10122;50.074;19.920;2022-12-18T17:09:41;-4.30;99.90
19920;DHT22;10122;50.074;19.920;2022-12-18T17:12:07;-4.40;99.90
19920;DHT22;10122;50.074;19.920;2022-12-18T17:14:34;-4.40;99.90
19920;DHT22;10122;50.074;19.920;2022-12-18T17:17:00;-4.40;99.90
19920;DHT22;10122;50.074;19.920;2022-12-18T17:19:26;-4.40;99.90
19920;DHT22;10122;50.074;19.920;2022-12-18T17:21:53;-4.40;99.90
19920;DHT22;10122;50.074;19.920;2022-12-18T17:24:19;-4.50;99.90
19920;DHT22;10122;50.074;19.920;2022-12-18T17:26:46;-4.50;99.90
19920;DHT22;10122;50.074;19.920;2022-12-18T17:29:15;-4.50;99.90
19920;DHT22;10122;50.074;19.920;2022-12-18T17:31:41;-4.60;99.90
19920;DHT22;10122;50.074;19.920;2022-12-18T17:34:09;-4.50;99.90
19920;DHT22;10122;50.074;19.920;2022-12-18T17:36:35;-4.50;99.90
19920;DHT22;10122;50.074;19.920;2022-12-18T17:39:02;-4.70;99.90
19920;DHT22;10122;50.074;19.920;2022-12-18T17:41:29;-4.70;99.90
19920;DHT22;10122;50.074;19.920;2022-12-18T17:44:00;-4.70;99.90
19920;DHT22;10122;50.074;19.920;2022-12-18T17:46:27;-4.80;99.90
19920;DHT22;10122;50.074;19.920;2022-12-18T17:48:57;-4.70;99.90
19920;DHT22;10122;50.074;19.920;2022-12-18T17:51:24;-4.70;99.90
19920;DHT22;10122;50.074;19.920;2022-12-18T17:53:50;-4.70;99.90